Time;durP1;ratioP1;P1;durP2;ratioP2;P2;SDS_P1;SDS_P2;PMS_P1;PMS_P2;Temp;Humidity;BMP_temperature;BMP_pressure;BME280_temperature;BME280_humidity;BME280_pressure;Samples;Min_cycle;Max_cycle;Signal;HPM_P1;HPM_P2
2021/11/10 00:01:05;;;;;;;5.43;3.10;;;;;;;8.19;60.47;100592.38;4974995;28;20236;-84
2021/11/10 00:03:33;;;;;;;3.40;2.90;;;;;;;8.21;60.53;100612.50;4975498;28;20316;-81
2021/11/10 00:05:59;;;;;;;3.67;3.07;;;;;;;8.19;60.82;100595.03;4960136;29;20252;-82
2021/11/10 00:08:40;;;;;;;4.80;3.30;;;;;;;8.04;61.06;100588.81;4976086;28;20247;-84
2021/11/10 00:11:24;;;;;;;3.53;2.87;;;;;;;8.12;61.34;100605.59;4976059;29;20554;-80
2021/11/10 00:13:59;;;;;;;3.50;3.20;;;;;;;8.13;61.53;100607.25;5095679;23;20245;-81
2021/11/10 00:16:46;;;;;;;3.97;3.10;;;;;;;8.09;61.74;100611.28;5095705;28;20189;-81
2021/11/10 00:19:36;;;;;;;4.67;3.00;;;;;;;8.09;61.96;100613.97;5158931;22;20263;-81
2021/11/10 00:22:18;;;;;;;4.00;3.17;;;;;;;7.95;61.35;100588.06;5099226;28;20588;-81
2021/11/10 00:24:52;;;;;;;4.40;3.10;;;;;;;8.12;61.72;100613.59;5116483;28;20277;-82
2021/11/10 00:27:38;;;;;;;4.07;3.30;;;;;;;8.06;62.06;100617.00;5121201;22;20592;-83
2021/11/10 00:30:12;;;;;;;4.67;3.43;;;;;;;8.03;62.20;100609.34;5097997;28;20227;-83
2021/11/10 00:32:43;;;;;;;5.23;3.30;;;;;;;8.02;62.15;100617.53;5116192;28;20267;-82
2021/11/10 00:35:12;;;;;;;5.13;3.47;;;;;;;7.90;62.41;100603.78;5116153;28;20189;-81
2021/11/10 00:37:55;;;;;;;3.70;2.87;;;;;;;7.95;61.68;100617.41;5115564;28;20223;-80
2021/11/10 00:40:49;;;;;;;4.00;3.07;;;;;;;7.90;62.14;100609.13;5125757;22;20231;-80
2021/11/10 00:43:20;;;;;;;4.60;3.40;;;;;;;7.87;62.53;100612.97;5116386;22;20228;-83
2021/11/10 00:46:05;;;;;;;3.60;3.20;;;;;;;7.80;62.10;100595.19;5092672;23;20650;-83
2021/11/10 00:48:40;;;;;;;4.67;3.37;;;;;;;7.81;63.00;100603.00;5112864;28;20488;-84
2021/11/10 00:51:08;;;;;;;4.50;3.37;;;;;;;7.70;62.76;100598.06;5113419;28;20220;-81
2021/11/10 00:53:37;;;;;;;4.73;3.23;;;;;;;7.81;63.02;100603.00;5114219;28;20231;-81
2021/11/10 00:56:08;;;;;;;3.70;3.13;;;;;;;7.91;62.68;100602.78;5101074;22;20238;-81
2021/11/10 00:58:41;;;;;;;4.10;3.30;;;;;;;7.86;62.44;100600.66;5093818;28;20236;-80
2021/11/10 01:01:12;;;;;;;3.90;3.17;;;;;;;7.77;63.14;100595.53;5111089;23;20224;-81
2021/11/10 01:03:48;;;;;;;4.43;2.90;;;;;;;7.75;62.62;100585.03;5110595;28;20214;-81
2021/11/10 01:06:18;;;;;;;4.90;3.07;;;;;;;7.74;62.95;100583.41;5112007;28;20224;-81
2021/11/10 01:08:55;;;;;;;6.33;3.10;;;;;;;7.83;63.05;100589.50;5113063;28;20300;-81
2021/11/10 01:11:21;;;;;;;3.97;3.07;;;;;;;7.78;63.37;100595.38;5118482;22;20228;-81
2021/11/10 01:13:51;;;;;;;4.40;3.20;;;;;;;7.78;62.58;100582.03;5111746;28;20192;-82
2021/11/10 01:16:18;;;;;;;3.90;3.13;;;;;;;7.91;62.85;100579.59;5069917;23;20287;-81
2021/11/10 01:19:14;;;;;;;5.47;3.30;;;;;;;7.94;62.73;100579.22;5036569;28;20309;-81
2021/11/10 01:21:51;;;;;;;4.00;3.57;;;;;;;7.92;62.97;100575.09;5049728;28;20249;-81
2021/11/10 01:24:20;;;;;;;3.73;3.30;;;;;;;7.97;63.16;100580.72;5034956;28;20234;-81
2021/11/10 01:27:14;;;;;;;5.07;3.33;;;;;;;7.93;63.09;100580.22;5037216;28;20263;-82
2021/11/10 01:29:50;;;;;;;6.77;3.83;;;;;;;7.84;63.24;100575.97;5051802;28;20205;-81
2021/11/10 01:32:35;;;;;;;4.77;3.53;;;;;;;8.04;63.07;100568.31;5049870;28;20225;-81
2021/11/10 01:35:09;;;;;;;5.20;3.50;;;;;;;7.85;62.85;100556.28;5065533;23;20284;-81
2021/11/10 01:37:40;;;;;;;5.70;3.90;;;;;;;8.02;63.37;100565.00;5053318;28;20221;-81
2021/11/10 01:40:21;;;;;;;5.83;3.60;;;;;;;8.16;62.97;100566.88;5071448;28;20213;-80
2021/11/10 01:43:12;;;;;;;4.93;3.80;;;;;;;8.13;62.67;100561.03;5070278;28;20228;-81
2021/11/10 01:45:56;;;;;;;5.20;3.77;;;;;;;8.07;62.63;100559.13;5086537;28;20233;-81
2021/11/10 01:48:33;;;;;;;3.87;3.43;;;;;;;8.13;63.00;100563.72;5072728;28;20225;-81
2021/11/10 01:51:07;;;;;;;6.30;3.87;;;;;;;8.06;63.15;100552.13;5086910;28;20296;-82
2021/11/10 01:53:37;;;;;;;5.47;4.17;;;;;;;8.01;63.36;100555.31;5070924;28;20225;-84
2021/11/10 01:56:05;;;;;;;4.47;4.07;;;;;;;7.97;63.68;100551.38;5052584;28;20229;-81
2021/11/10 01:58:42;;;;;;;4.70;4.20;;;;;;;8.05;63.79;100553.94;5068582;28;20217;-81
2021/11/10 02:01:08;;;;;;;5.07;3.77;;;;;;;7.95;63.60;100558.72;5068648;28;20221;-82
2021/11/10 02:03:37;;;;;;;5.70;4.20;;;;;;;7.89;64.13;100532.72;5085599;28;20230;-80
2021/11/10 02:06:31;;;;;;;5.07;4.17;;;;;;;7.96;64.18;100558.53;5071344;28;20186;-83
2021/11/10 02:09:05;;;;;;;7.00;4.53;;;;;;;8.09;64.52;100555.25;5067799;28;20248;-81
2021/11/10 02:11:35;;;;;;;6.50;4.67;;;;;;;8.06;65.10;100554.78;5069322;28;20236;-81
2021/11/10 02:14:22;;;;;;;5.60;4.80;;;;;;;7.96;65.52;100560.38;5062541;28;20293;-81
2021/11/10 02:16:56;;;;;;;6.00;5.33;;;;;;;7.88;66.00;100553.28;5069199;28;20319;-81
2021/11/10 02:19:33;;;;;;;6.60;5.60;;;;;;;7.90;66.40;100569.09;5070366;28;20228;-81
2021/11/10 02:22:22;;;;;;;6.87;5.17;;;;;;;7.87;66.14;100567.63;5070457;28;20233;-81
2021/11/10 02:24:52;;;;;;;6.73;5.30;;;;;;;7.86;67.02;100563.28;5070796;28;20263;-81
2021/11/10 02:27:34;;;;;;;7.03;5.70;;;;;;;7.88;67.09;100552.44;5063614;23;20861;-81
2021/11/10 02:30:32;;;;;;;6.97;5.90;;;;;;;7.87;66.84;100559.63;5068210;23;20296;-81
2021/11/10 02:33:14;;;;;;;7.97;5.77;;;;;;;7.80;67.12;100553.31;5119999;22;20247;-80
2021/11/10 02:35:41;;;;;;;6.40;5.80;;;;;;;7.84;67.21;100546.63;5073286;23;20249;-80
2021/11/10 02:38:13;;;;;;;7.93;6.03;;;;;;;7.75;67.28;100545.03;5064966;28;20283;-81
2021/11/10 02:40:46;;;;;;;6.60;5.67;;;;;;;7.80;67.50;100549.81;5068418;28;20225;-81
2021/11/10 02:43:21;;;;;;;8.73;6.20;;;;;;;7.83;67.17;100554.81;5067477;28;20203;-81
2021/11/10 02:45:56;;;;;;;7.23;5.70;;;;;;;7.86;67.74;100560.63;5071925;28;20249;-80
2021/11/10 02:48:24;;;;;;;8.80;5.77;;;;;;;7.75;68.18;100555.69;5072275;28;20255;-81
2021/11/10 02:50:52;;;;;;;8.30;6.00;;;;;;;7.87;67.33;100561.47;5089585;23;20228;-81
2021/11/10 02:53:23;;;;;;;7.30;5.80;;;;;;;7.68;67.66;100549.44;5060368;23;20237;-82
2021/11/10 02:55:56;;;;;;;8.07;6.43;;;;;;;7.85;67.53;100569.63;5069859;28;20243;-81
2021/11/10 02:58:31;;;;;;;7.10;6.37;;;;;;;7.74;68.44;100567.41;5053030;28;20259;-82
2021/11/10 03:01:06;;;;;;;7.33;6.37;;;;;;;7.85;67.87;100582.13;5053756;28;20193;-81
2021/11/10 03:03:33;;;;;;;8.33;6.60;;;;;;;7.87;67.93;100580.97;5069931;28;20244;-81
2021/11/10 03:06:04;;;;;;;7.00;6.30;;;;;;;7.86;68.21;100578.47;5054471;28;20235;-81
2021/11/10 03:08:34;;;;;;;8.87;6.37;;;;;;;7.85;68.22;100576.81;5053659;28;20588;-81
2021/11/10 03:11:09;;;;;;;8.03;6.80;;;;;;;7.76;68.40;100586.72;5073145;28;20228;-83
2021/11/10 03:13:59;;;;;;;8.77;6.27;;;;;;;7.66;68.38;100585.28;5072832;28;20229;-81
2021/11/10 03:16:28;;;;;;;10.00;7.37;;;;;;;7.54;69.21;100576.88;5081244;23;20940;-81
2021/11/10 03:18:55;;;;;;;8.57;6.97;;;;;;;7.57;69.34;100587.16;5015472;28;20258;-81
2021/11/10 03:21:25;;;;;;;8.17;6.60;;;;;;;7.49;69.26;100590.72;5057247;23;20221;-82
2021/11/10 03:24:06;;;;;;;11.90;7.60;;;;;;;7.41;69.68;100596.13;5078228;28;20247;-81
2021/11/10 03:26:42;;;;;;;7.43;6.50;;;;;;;7.22;69.64;100582.41;5087704;22;20257;-81
2021/11/10 03:29:13;;;;;;;8.27;7.23;;;;;;;7.21;70.20;100602.06;5096605;28;20255;-81
2021/11/10 03:31:48;;;;;;;8.30;7.00;;;;;;;7.16;70.52;100594.59;5080235;22;20236;-81
2021/11/10 03:34:26;;;;;;;8.30;7.07;;;;;;;7.13;70.68;100597.59;5082990;22;20240;-81
2021/11/10 03:37:27;;;;;;;7.80;7.00;;;;;;;7.11;71.19;100612.94;5093815;28;20225;-81
2021/11/10 03:40:24;;;;;;;9.07;7.60;;;;;;;7.04;71.48;100610.13;5054667;28;20312;-81
2021/11/10 03:42:55;;;;;;;9.90;7.50;;;;;;;6.98;71.41;100600.16;5055120;28;20220;-80
2021/11/10 03:45:35;;;;;;;7.63;6.67;;;;;;;7.07;71.47;100608.94;5034613;28;20225;-81
2021/11/10 03:48:13;;;;;;;12.73;7.40;;;;;;;6.91;71.18;100583.19;5052676;28;20232;-80
2021/11/10 03:50:53;;;;;;;7.77;6.93;;;;;;;6.94;72.06;100588.19;5051288;28;20240;-81
2021/11/10 03:53:24;;;;;;;11.17;7.90;;;;;;;7.00;71.56;100589.31;5058475;23;20254;-81
2021/11/10 03:55:55;;;;;;;8.10;7.30;;;;;;;6.96;71.71;100588.00;5022728;23;20242;-81
2021/11/10 03:58:28;;;;;;;8.43;7.30;;;;;;;6.98;71.75;100588.69;5010815;23;20230;-80
2021/11/10 04:00:58;;;;;;;9.03;7.13;;;;;;;7.12;71.79;100592.44;5052340;28;20289;-81
2021/11/10 04:04:09;;;;;;;9.03;7.43;;;;;;;7.01;71.95;100602.47;5068455;22;20220;-82
2021/11/10 04:06:58;;;;;;;9.43;7.10;;;;;;;7.10;71.82;100589.94;5103173;23;20259;-81
2021/11/10 04:09:39;;;;;;;9.43;6.77;;;;;;;7.20;70.85;100587.91;5073403;28;20214;-81
2021/11/10 04:12:11;;;;;;;9.27;7.47;;;;;;;7.12;71.38;100581.78;5071602;28;20236;-81
2021/11/10 04:14:41;;;;;;;10.23;7.60;;;;;;;7.06;71.68;100572.66;5072745;22;20234;-82
2021/11/10 04:17:58;;;;;;;9.97;7.50;;;;;;;7.20;71.66;100595.06;5016280;23;20227;31
2021/11/10 04:20:37;;;;;;;9.97;7.30;;;;;;;7.24;72.07;100599.03;5032840;22;20235;-81
2021/11/10 04:23:08;;;;;;;9.73;7.07;;;;;;;7.16;71.60;100599.06;5084520;23;20232;-83
2021/11/10 04:25:51;;;;;;;9.33;7.50;;;;;;;7.25;71.69;100604.19;5079471;28;20217;-82
2021/11/10 04:28:43;;;;;;;10.63;7.67;;;;;;;7.26;71.70;100589.03;5101121;22;20231;-82
2021/11/10 04:31:17;;;;;;;9.40;7.87;;;;;;;7.32;71.63;100607.84;5084692;23;20217;-81
2021/11/10 04:33:52;;;;;;;9.03;7.53;;;;;;;7.34;71.18;100596.97;5051642;28;20222;-82
2021/11/10 04:36:24;;;;;;;8.83;7.30;;;;;;;7.41;71.42;100597.97;5036725;28;20226;-81
2021/11/10 04:39:16;;;;;;;9.90;7.30;;;;;;;7.39;71.49;100597.28;4760811;22;9735659;-80
2021/11/10 04:41:47;;;;;;;10.50;8.00;;;;;;;7.42;71.08;100591.59;5083107;23;20327;-81
2021/11/10 04:44:52;;;;;;;8.33;7.40;;;;;;;7.44;71.26;100597.59;5013874;28;20567;-80
2021/11/10 04:47:27;;;;;;;10.63;7.83;;;;;;;7.43;71.04;100579.94;4999175;28;20188;-81
2021/11/10 04:52:52;;;;;;;9.03;7.70;;;;;;;7.32;71.42;100573.19;5084702;23;20236;-82
2021/11/10 04:55:45;;;;;;;9.70;8.27;;;;;;;7.49;70.83;100585.41;5104694;22;20249;-82
2021/11/10 04:58:15;;;;;;;11.60;8.10;;;;;;;7.44;71.13;100601.09;5120209;22;20228;-81
2021/11/10 05:00:48;;;;;;;9.03;7.43;;;;;;;7.31;72.00;100600.84;5065505;28;20187;-81
2021/11/10 05:03:23;;;;;;;9.80;8.37;;;;;;;7.27;71.58;100590.72;5114914;22;20254;-82
2021/11/10 05:05:59;;;;;;;8.97;7.77;;;;;;;7.47;70.93;100602.56;5108261;28;20220;-81
2021/11/10 05:08:48;;;;;;;8.80;7.70;;;;;;;7.43;71.22;100604.75;5095113;28;20902;-81
2021/11/10 05:11:52;;;;;;;10.60;8.20;;;;;;;7.48;71.38;100598.91;5082192;28;20223;-82
2021/11/10 05:14:28;;;;;;;9.27;7.60;;;;;;;7.40;71.56;100599.78;5093509;28;20199;-81
2021/11/10 05:17:11;;;;;;;13.07;8.30;;;;;;;7.49;71.02;100598.72;5094782;28;20208;-81
2021/11/10 05:19:43;;;;;;;11.60;8.20;;;;;;;7.40;71.31;100589.13;5121064;22;20910;-82
2021/11/10 05:22:35;;;;;;;8.80;7.90;;;;;;;7.41;71.45;100588.13;5113387;28;20224;-82
2021/11/10 05:25:11;;;;;;;10.90;8.33;;;;;;;7.41;71.75;100596.13;5113850;28;20202;-82
2021/11/10 05:27:45;;;;;;;14.00;8.37;;;;;;;7.38;71.71;100588.47;5114289;28;20179;-81
2021/11/10 05:30:24;;;;;;;8.77;7.87;;;;;;;7.45;71.26;100604.59;5113477;28;20287;-81
2021/11/10 05:32:58;;;;;;;9.73;8.07;;;;;;;7.47;71.68;100591.91;5100354;23;20252;-81
2021/11/10 05:35:33;;;;;;;9.50;7.97;;;;;;;7.46;71.59;100587.59;5087807;22;20280;-82
2021/11/10 05:38:17;;;;;;;11.27;8.03;;;;;;;7.51;70.96;100594.03;5097412;28;20234;-81
2021/11/10 05:41:02;;;;;;;9.07;7.07;;;;;;;7.53;71.08;100596.53;5201395;22;20234;-81
2021/11/10 05:44:15;;;;;;;10.37;7.87;;;;;;;7.58;71.01;100591.50;5108028;28;20206;-81
2021/11/10 05:46:44;;;;;;;9.47;7.37;;;;;;;7.47;70.86;100578.56;5111420;28;20220;-82
2021/11/10 05:49:11;;;;;;;10.73;8.27;;;;;;;7.62;71.21;100595.47;5091153;28;20532;-81
2021/11/10 05:51:54;;;;;;;8.50;7.60;;;;;;;7.58;71.38;100585.34;5104355;23;20229;-81
2021/11/10 05:54:21;;;;;;;9.33;7.17;;;;;;;7.51;70.92;100574.56;5094368;28;20224;-81
2021/11/10 05:56:52;;;;;;;8.67;7.20;;;;;;;7.63;70.68;100594.47;5093215;28;20278;-82
2021/11/10 05:59:38;;;;;;;11.13;7.37;;;;;;;7.64;71.03;100601.47;5094971;28;20232;-82
2021/11/10 06:02:27;;;;;;;8.60;7.70;;;;;;;7.60;70.78;100588.66;5110254;22;20220;-81
2021/11/10 06:04:59;;;;;;;8.47;7.33;;;;;;;7.67;70.28;100598.44;5098260;28;20247;-81
2021/11/10 06:07:57;;;;;;;8.33;7.40;;;;;;;7.71;70.24;100596.25;5053199;28;20273;-82
2021/11/10 06:10:24;;;;;;;8.27;7.37;;;;;;;7.67;70.35;100606.44;5093780;22;20224;-81
2021/11/10 06:12:53;;;;;;;9.57;7.43;;;;;;;7.64;70.74;100597.97;5079666;23;20304;-81
2021/11/10 06:15:25;;;;;;;8.73;7.70;;;;;;;7.60;69.95;100605.50;5081588;23;20226;-81
2021/11/10 06:18:01;;;;;;;9.37;7.93;;;;;;;7.66;70.33;100594.13;5083745;23;20224;-81
2021/11/10 06:20:32;;;;;;;9.30;7.97;;;;;;;7.70;70.62;100606.09;5089920;28;20220;-83
2021/11/10 06:23:37;;;;;;;10.33;8.07;;;;;;;7.84;70.17;100618.66;5091609;28;20247;-81
2021/11/10 06:28:42;;;;;;;10.23;7.87;;;;;;;7.86;70.04;100600.66;5038032;23;20227;-82
2021/11/10 06:31:18;;;;;;;9.17;8.00;;;;;;;7.90;70.51;100619.78;5094150;22;20260;-84
2021/11/10 06:33:58;;;;;;;9.50;7.83;;;;;;;7.95;70.04;100606.75;5086452;22;20225;-84
2021/11/10 06:36:55;;;;;;;8.90;7.53;;;;;;;7.94;69.34;100603.25;5100407;22;20219;-82
2021/11/10 06:39:24;;;;;;;8.30;7.43;;;;;;;8.07;69.11;100615.97;5121730;22;20249;-83
2021/11/10 06:42:13;;;;;;;9.97;7.27;;;;;;;8.12;68.79;100610.13;5274331;22;20220;-83
2021/11/10 06:44:50;;;;;;;7.43;6.70;;;;;;;8.12;68.66;100607.47;5115148;28;20204;-81
2021/11/10 06:47:27;;;;;;;8.00;6.47;;;;;;;8.17;68.35;100605.88;5136052;22;20642;-82
2021/11/10 06:49:59;;;;;;;8.47;6.67;;;;;;;8.26;67.49;100622.66;5114095;22;20253;-82
2021/11/10 06:52:29;;;;;;;7.57;6.77;;;;;;;8.36;67.18;100617.91;5091149;22;20247;-82
2021/11/10 06:55:16;;;;;;;7.20;6.20;;;;;;;8.40;66.67;100624.56;5065051;23;20297;-82
2021/11/10 06:57:47;;;;;;;7.30;5.73;;;;;;;8.43;66.01;100612.69;5073052;28;20531;-81
2021/11/10 07:00:40;;;;;;;7.70;5.40;;;;;;;8.50;65.54;100626.97;5073007;28;20233;-83
2021/11/10 07:03:08;;;;;;;6.73;5.77;;;;;;;8.53;65.61;100619.44;5070103;28;20228;-81
2021/11/10 07:05:36;;;;;;;7.07;5.57;;;;;;;8.51;65.27;100601.94;5066064;28;20288;-81
2021/11/10 07:08:05;;;;;;;5.50;4.97;;;;;;;8.58;64.55;100614.38;5066720;28;20221;-82
2021/11/10 07:10:35;;;;;;;7.17;5.13;;;;;;;8.69;64.42;100616.59;5066944;28;20239;-82
2021/11/10 07:13:03;;;;;;;6.63;5.10;;;;;;;8.74;63.77;100616.88;5066402;28;20229;-82
2021/11/10 07:15:30;;;;;;;5.30;4.10;;;;;;;8.81;63.49;100612.47;5066143;28;20762;-81
2021/11/10 07:17:59;;;;;;;7.10;4.60;;;;;;;8.95;63.05;100612.63;5065505;28;20255;-81
2021/11/10 07:20:25;;;;;;;8.13;4.97;;;;;;;8.93;63.04;100615.50;5033292;28;20316;-81
2021/11/10 07:22:53;;;;;;;5.23;4.07;;;;;;;8.98;62.81;100604.25;5049444;28;20233;-81
2021/11/10 07:25:22;;;;;;;5.43;4.40;;;;;;;9.03;62.34;100601.84;5065494;28;20237;-82
2021/11/10 07:27:49;;;;;;;4.57;4.17;;;;;;;9.15;62.24;100614.53;5066931;28;20209;-82
2021/11/10 07:30:19;;;;;;;5.20;4.00;;;;;;;9.11;62.00;100607.06;5083010;28;20221;-81
2021/11/10 07:32:46;;;;;;;5.03;3.60;;;;;;;9.32;61.47;100611.66;5069578;28;20229;-82
2021/11/10 07:35:15;;;;;;;4.30;3.90;;;;;;;9.36;61.77;100597.72;5068450;28;20267;-81
2021/11/10 07:37:47;;;;;;;5.00;3.93;;;;;;;9.35;61.60;100587.22;5051593;28;20575;-81
2021/11/10 07:40:16;;;;;;;4.97;4.20;;;;;;;9.48;61.40;100598.88;5083851;28;20279;-82
2021/11/10 07:42:45;;;;;;;5.40;4.03;;;;;;;9.50;61.17;100590.69;5068174;28;20213;-82
2021/11/10 07:45:22;;;;;;;5.60;3.83;;;;;;;9.48;61.01;100580.16;5068661;28;20259;-83
2021/11/10 07:47:52;;;;;;;4.60;3.83;;;;;;;9.56;60.53;100572.03;5089566;28;20226;-82
2021/11/10 07:50:21;;;;;;;5.63;3.60;;;;;;;9.68;60.40;100583.88;5089078;28;20252;-81
2021/11/10 07:52:49;;;;;;;4.47;3.67;;;;;;;9.76;60.27;100587.44;5055964;28;20189;-82
2021/11/10 07:55:17;;;;;;;4.40;3.60;;;;;;;9.78;60.19;100574.72;5071560;28;20248;-83
2021/11/10 07:57:44;;;;;;;5.87;3.90;;;;;;;9.84;59.75;100576.63;5088474;28;20632;-82
2021/11/10 08:00:31;;;;;;;4.50;3.77;;;;;;;10.01;58.97;100578.84;5075173;28;20216;-82
2021/11/10 08:03:06;;;;;;;6.87;4.00;;;;;;;10.01;59.07;100580.69;5090209;28;20232;-83
2021/11/10 08:05:35;;;;;;;6.17;3.73;;;;;;;10.05;58.89;100563.22;5091550;28;20232;-85
2021/11/10 08:08:04;;;;;;;4.97;3.80;;;;;;;10.13;58.73;100571.94;5091253;28;20716;-83
2021/11/10 08:10:50;;;;;;;4.97;3.87;;;;;;;10.17;58.29;100561.72;5059768;28;20217;-82
2021/11/10 08:13:17;;;;;;;6.70;3.77;;;;;;;10.33;58.06;100571.28;5089787;28;20294;-83
2021/11/10 08:15:46;;;;;;;5.17;3.60;;;;;;;10.33;57.83;100572.13;5091470;28;20224;-83
2021/11/10 08:18:13;;;;;;;4.83;3.10;;;;;;;10.39;57.37;100573.19;5092165;28;20181;-81
2021/11/10 08:20:39;;;;;;;4.43;3.17;;;;;;;10.41;57.42;100563.91;5091011;28;20225;-80
2021/11/10 08:23:06;;;;;;;5.83;3.17;;;;;;;10.40;57.12;100564.13;5090608;28;20622;-81
2021/11/10 08:25:33;;;;;;;5.97;3.43;;;;;;;10.51;56.63;100551.00;5091237;28;20237;-84
2021/11/10 08:28:10;;;;;;;4.33;3.20;;;;;;;10.59;56.70;100576.84;5090652;28;20235;-80
2021/11/10 08:30:38;;;;;;;4.03;3.10;;;;;;;10.58;56.44;100569.81;5090934;28;20322;-80
2021/11/10 08:33:08;;;;;;;4.20;3.30;;;;;;;10.53;56.47;100566.91;5091245;28;20228;-82
2021/11/10 08:35:35;;;;;;;4.70;3.53;;;;;;;10.93;55.55;100558.03;5081254;23;20735;-82
2021/11/10 08:38:04;;;;;;;6.43;4.40;;;;;;;11.00;55.27;100560.75;5091000;28;20229;-81
2021/11/10 08:40:31;;;;;;;6.47;3.97;;;;;;;10.92;55.08;100556.38;5091552;28;20227;-82
2021/11/10 08:42:58;;;;;;;4.13;3.70;;;;;;;10.91;55.64;100560.09;5090152;28;20658;-81
2021/11/10 08:45:34;;;;;;;5.23;3.40;;;;;;;10.87;55.86;100556.16;5092128;28;20705;-81
2021/11/10 08:48:05;;;;;;;4.50;3.20;;;;;;;10.95;55.71;100560.53;5092043;28;20247;-82
2021/11/10 08:50:40;;;;;;;3.33;2.87;;;;;;;11.09;55.41;100553.38;5091866;28;20217;-82
2021/11/10 08:53:08;;;;;;;4.37;3.13;;;;;;;11.04;55.30;100553.97;5092135;28;20271;-83
2021/11/10 08:55:36;;;;;;;3.33;3.00;;;;;;;11.10;55.00;100547.81;5092296;28;20311;-82
2021/11/10 08:58:06;;;;;;;5.13;3.17;;;;;;;11.24;54.84;100549.50;5091353;28;20217;-81
2021/11/10 09:00:34;;;;;;;4.50;3.03;;;;;;;11.37;55.03;100556.78;5090900;28;20235;-82
2021/11/10 09:03:07;;;;;;;3.63;3.33;;;;;;;11.44;54.26;100549.53;5058312;28;20221;-79
2021/11/10 09:05:40;;;;;;;4.50;3.10;;;;;;;11.52;54.41;100543.19;5091881;28;20235;-81
2021/11/10 09:08:06;;;;;;;3.40;3.10;;;;;;;11.51;53.78;100531.63;5091343;28;20221;-81
2021/11/10 09:10:36;;;;;;;3.90;3.40;;;;;;;11.62;53.01;100528.31;5091994;28;20251;-80
2021/11/10 09:13:04;;;;;;;7.00;3.33;;;;;;;11.67;52.82;100525.00;5074686;28;20255;-82
2021/11/10 09:15:34;;;;;;;4.27;3.10;;;;;;;11.77;52.77;100542.41;5091489;28;20316;-80
2021/11/10 09:18:21;;;;;;;3.40;3.00;;;;;;;11.65;52.65;100527.09;5091367;28;20228;-82
2021/11/10 09:20:49;;;;;;;3.77;3.17;;;;;;;11.70;52.79;100521.94;5091814;28;20232;-79
2021/11/10 09:23:21;;;;;;;3.40;2.93;;;;;;;11.82;52.44;100525.69;5091821;28;20695;-80
2021/11/10 09:25:51;;;;;;;4.90;3.30;;;;;;;11.74;52.63;100529.41;5098510;23;20227;-82
2021/11/10 09:28:23;;;;;;;4.67;3.40;;;;;;;11.84;52.22;100520.94;5074295;28;20243;-79
2021/11/10 09:30:54;;;;;;;4.27;3.23;;;;;;;11.93;52.45;100510.81;5091519;28;20236;-80
2021/11/10 09:33:25;;;;;;;4.00;3.27;;;;;;;11.99;51.79;100518.06;5090981;28;20228;-80
2021/11/10 09:35:53;;;;;;;5.77;3.63;;;;;;;12.06;51.92;100517.00;5091811;28;20228;-81
2021/11/10 09:38:36;;;;;;;4.60;4.00;;;;;;;12.01;51.76;100516.81;5076072;28;20250;-82
2021/11/10 09:41:09;;;;;;;5.70;3.80;;;;;;;12.17;51.57;100520.94;5091649;28;20243;-80
2021/11/10 09:43:42;;;;;;;5.47;3.60;;;;;;;12.23;51.27;100530.84;5091373;28;20770;-79
2021/11/10 09:46:20;;;;;;;5.13;3.40;;;;;;;12.19;51.21;100513.47;5089709;28;20226;-80
2021/11/10 09:48:58;;;;;;;4.97;3.03;;;;;;;12.33;51.24;100517.81;5090844;28;20239;-79
2021/11/10 09:51:29;;;;;;;4.07;2.87;;;;;;;12.39;51.07;100502.72;5073880;28;20215;-81
2021/11/10 09:53:58;;;;;;;5.30;3.47;;;;;;;12.41;50.29;100503.34;5087601;28;20300;-81
2021/11/10 09:56:26;;;;;;;4.30;3.37;;;;;;;12.55;50.98;100505.75;5089733;28;20232;-79
2021/11/10 09:58:54;;;;;;;7.90;3.50;;;;;;;12.59;49.95;100511.56;5090453;28;20235;-81
2021/11/10 10:01:23;;;;;;;7.27;3.77;;;;;;;12.62;50.48;100503.06;5090488;28;20229;-79
2021/11/10 10:03:53;;;;;;;9.63;3.87;;;;;;;12.68;50.39;100513.81;5097546;22;20255;-80
2021/11/10 10:06:22;;;;;;;5.20;3.67;;;;;;;12.71;51.01;100499.94;5039521;28;20240;-79
2021/11/10 10:08:52;;;;;;;8.37;3.93;;;;;;;12.77;50.80;100509.00;5072868;28;20236;-79
2021/11/10 10:11:30;;;;;;;6.40;3.87;;;;;;;12.87;51.27;100511.25;5090982;28;20204;-79
2021/11/10 10:13:59;;;;;;;4.50;4.10;;;;;;;12.83;51.50;100507.34;5091980;22;20268;-79
2021/11/10 10:16:39;;;;;;;5.13;4.17;;;;;;;12.76;51.70;100497.44;5056159;28;20208;-79
2021/11/10 10:19:12;;;;;;;4.90;4.20;;;;;;;12.73;51.88;100500.56;5069752;28;20236;-81
2021/11/10 10:21:43;;;;;;;6.00;4.20;;;;;;;12.72;52.03;100498.06;5054412;28;20248;-80
2021/11/10 10:24:14;;;;;;;8.37;4.70;;;;;;;12.69;52.82;100479.69;5052703;28;20241;-80
2021/11/10 10:26:44;;;;;;;5.73;5.00;;;;;;;12.62;52.31;100471.63;5071290;28;20551;-79
2021/11/10 10:29:15;;;;;;;6.33;4.87;;;;;;;12.40;52.60;100485.56;5069358;28;20252;-81
2021/11/10 10:31:45;;;;;;;6.57;5.40;;;;;;;12.35;52.57;100478.13;5075921;23;20229;-79
2021/11/10 10:34:18;;;;;;;6.87;5.20;;;;;;;12.35;52.87;100476.25;5069255;28;20225;-79
2021/11/10 10:36:49;;;;;;;5.93;5.00;;;;;;;12.29;52.40;100469.03;5069109;28;20221;-81
2021/11/10 10:39:18;;;;;;;6.17;4.43;;;;;;;12.29;52.58;100468.22;5069741;28;20315;-81
2021/11/10 10:41:52;;;;;;;6.83;4.63;;;;;;;12.25;51.95;100458.91;5069573;28;20229;-79
2021/11/10 10:44:22;;;;;;;6.67;5.00;;;;;;;12.39;52.24;100473.16;5053511;28;20215;-80
2021/11/10 10:47:18;;;;;;;8.70;5.23;;;;;;;12.47;52.00;100473.75;5052638;28;20240;-79
2021/11/10 10:49:49;;;;;;;7.23;4.90;;;;;;;12.49;51.83;100462.78;5070643;28;20225;-80
2021/11/10 10:52:35;;;;;;;7.90;5.50;;;;;;;12.69;52.32;100464.34;5069903;28;20231;-80
2021/11/10 10:55:36;;;;;;;8.20;5.33;;;;;;;12.66;51.60;100466.66;5071032;28;20256;-80
2021/11/10 10:58:09;;;;;;;6.50;5.43;;;;;;;12.57;51.48;100452.63;5069917;28;20235;-79
2021/11/10 11:00:58;;;;;;;6.07;4.97;;;;;;;12.72;51.84;100466.63;5101088;22;20475;-82
2021/11/10 11:03:28;;;;;;;5.67;4.80;;;;;;;12.70;50.86;100463.31;5081236;23;20356;-81
2021/11/10 11:06:08;;;;;;;5.20;4.70;;;;;;;12.79;50.18;100466.59;5077593;28;20315;-80
2021/11/10 11:08:44;;;;;;;4.63;4.20;;;;;;;12.89;49.03;100468.81;5108952;23;20312;-80
2021/11/10 11:11:25;;;;;;;5.37;4.87;;;;;;;13.07;48.53;100456.31;5078391;28;20236;-80
2021/11/10 11:13:58;;;;;;;8.37;5.27;;;;;;;13.18;49.53;100461.03;5103166;23;20243;-82
2021/11/10 11:16:35;;;;;;;6.97;6.10;;;;;;;13.15;49.70;100452.59;5095482;28;20236;-79
2021/11/10 11:19:33;;;;;;;7.40;5.10;;;;;;;13.20;50.18;100439.31;5096891;28;20232;-80
2021/11/10 11:22:18;;;;;;;5.93;5.30;;;;;;;13.21;50.68;100439.06;5101912;23;20228;-80
2021/11/10 11:25:23;;;;;;;6.00;5.10;;;;;;;13.27;50.43;100431.16;5079589;28;20224;-79
2021/11/10 11:28:27;;;;;;;5.30;4.80;;;;;;;13.19;49.42;100432.28;5095788;28;20219;-80
2021/11/10 11:30:58;;;;;;;5.23;4.73;;;;;;;13.16;49.74;100432.69;5094194;28;20232;-80
2021/11/10 11:33:26;;;;;;;5.53;4.93;;;;;;;13.17;49.99;100437.03;5101711;22;20233;-81
2021/11/10 11:35:57;;;;;;;6.47;5.20;;;;;;;13.28;50.23;100444.41;5078560;28;20229;-80
2021/11/10 11:38:29;;;;;;;7.80;5.07;;;;;;;13.21;50.79;100444.44;5094946;28;20235;-81
2021/11/10 11:41:02;;;;;;;8.80;5.70;;;;;;;13.18;51.31;100427.94;5100659;23;20236;-80
2021/11/10 11:43:44;;;;;;;6.83;5.20;;;;;;;13.25;51.58;100423.31;5094030;28;20239;-79
2021/11/10 11:46:21;;;;;;;6.10;5.47;;;;;;;13.31;51.59;100425.13;5094320;28;20225;-79
2021/11/10 11:48:54;;;;;;;5.37;4.87;;;;;;;13.26;50.34;100424.97;5036887;28;20220;-81
2021/11/10 11:51:23;;;;;;;5.40;4.90;;;;;;;13.17;50.94;100437.03;5054486;28;20327;-79
2021/11/10 11:53:50;;;;;;;7.03;5.47;;;;;;;13.14;51.40;100434.78;5087645;22;20284;-80
2021/11/10 11:56:19;;;;;;;7.13;5.77;;;;;;;13.07;51.41;100429.41;5101279;22;20508;-79
2021/11/10 11:58:51;;;;;;;6.03;5.40;;;;;;;12.92;51.75;100431.59;5075622;28;20228;-79
2021/11/10 12:01:25;;;;;;;6.90;6.27;;;;;;;13.03;51.96;100435.44;5103076;22;20238;-78
2021/11/10 12:04:09;;;;;;;7.07;5.70;;;;;;;12.96;51.81;100437.34;5073408;28;20219;-81
2021/11/10 12:06:58;;;;;;;7.87;6.63;;;;;;;12.89;52.31;100431.16;5081735;23;20225;-79
2021/11/10 12:09:32;;;;;;;7.43;5.63;;;;;;;12.94;51.73;100432.16;5052971;28;20533;-80
2021/11/10 12:11:59;;;;;;;7.33;6.13;;;;;;;12.87;51.55;100426.03;5066874;28;20655;-79
2021/11/10 12:14:26;;;;;;;6.80;6.03;;;;;;;12.93;52.17;100430.50;5068297;28;20233;-79